createdAt,value
2018-01-26T00:00:06.315Z,411.27
2018-01-26T00:02:34.032Z,408.43
2018-01-26T00:05:00.803Z,397.60
2018-01-26T00:07:27.552Z,379.10
2018-01-26T00:09:54.283Z,345.03
2018-01-26T00:12:21.953Z,299.27
2018-01-26T00:14:48.687Z,292.50
2018-01-26T00:17:16.390Z,311.50
2018-01-26T00:19:44.168Z,298.30
2018-01-26T00:22:11.887Z,298.43
2018-01-26T00:24:39.559Z,311.90
2018-01-26T00:27:06.286Z,318.57
2018-01-26T00:29:33.963Z,322.60
2018-01-26T00:32:01.644Z,295.10
2018-01-26T00:34:29.354Z,325.00
2018-01-26T00:36:56.044Z,362.70
2018-01-26T00:39:27.943Z,355.57
2018-01-26T00:41:54.674Z,355.57
2018-01-26T00:44:21.399Z,360.53
2018-01-26T00:46:48.127Z,401.07
2018-01-26T00:49:15.843Z,390.63
2018-01-26T00:51:43.465Z,355.50
2018-01-26T00:54:11.151Z,370.47
2018-01-26T00:56:37.925Z,359.17
2018-01-26T00:59:04.625Z,367.80
2018-01-26T01:01:32.291Z,378.80
2018-01-26T01:04:01.022Z,388.20
2018-01-26T01:06:27.747Z,351.67
2018-01-26T01:08:54.459Z,349.93
2018-01-26T01:11:22.208Z,345.10
2018-01-26T01:13:50.924Z,350.30
2018-01-26T01:16:18.592Z,326.17
2018-01-26T01:18:46.287Z,329.17
2018-01-26T01:21:12.998Z,316.97
2018-01-26T01:23:40.686Z,338.73
2018-01-26T01:26:07.464Z,318.73
2018-01-26T01:28:36.108Z,304.97
2018-01-26T01:31:03.774Z,288.33
2018-01-26T01:33:31.474Z,263.63
2018-01-26T01:35:58.178Z,292.33
2018-01-26T01:38:24.919Z,274.53
2018-01-26T01:40:52.652Z,272.50
2018-01-26T01:43:20.359Z,264.73
2018-01-26T01:45:49.069Z,240.73
2018-01-26T01:48:15.830Z,237.40
2018-01-26T01:50:44.488Z,236.13
2018-01-26T01:53:13.230Z,229.73
2018-01-26T01:55:40.992Z,213.90
2018-01-26T01:58:07.674Z,227.77
2018-01-26T02:00:35.358Z,208.60
2018-01-26T02:03:02.137Z,193.60
2018-01-26T02:05:29.882Z,195.97
2018-01-26T02:07:56.596Z,192.23
2018-01-26T02:10:23.324Z,181.27
2018-01-26T02:12:50.018Z,190.23
2018-01-26T02:15:16.747Z,174.37
2018-01-26T02:17:43.510Z,173.83
2018-01-26T02:20:10.970Z,196.10
2018-01-26T02:22:37.696Z,172.70
2018-01-26T02:25:05.382Z,179.33
2018-01-26T02:27:32.507Z,179.80
2018-01-26T02:30:01.209Z,192.53
2018-01-26T02:32:28.916Z,181.87
2018-01-26T02:34:56.634Z,188.67
2018-01-26T02:37:24.292Z,190.83
2018-01-26T02:39:52.017Z,172.70
2018-01-26T02:42:20.652Z,192.07
2018-01-26T02:44:47.400Z,188.03
2018-01-26T02:47:16.134Z,193.57
2018-01-26T02:49:42.833Z,241.47
2018-01-26T02:52:09.568Z,248.03
2018-01-26T02:54:37.286Z,281.20
2018-01-26T02:57:06.041Z,283.87
2018-01-26T02:59:33.699Z,262.73
2018-01-26T03:02:01.404Z,240.17
2018-01-26T03:04:30.058Z,228.93
2018-01-26T03:06:58.752Z,206.67
2018-01-26T03:09:26.450Z,211.17
2018-01-26T03:11:54.176Z,174.97
2018-01-26T03:14:21.853Z,180.37
2018-01-26T03:16:50.619Z,165.23
2018-01-26T03:19:18.316Z,159.13
2018-01-26T03:21:45.978Z,157.27
2018-01-26T03:24:13.673Z,142.37
2018-01-26T03:26:41.412Z,151.50
2018-01-26T03:29:08.158Z,144.70
2018-01-26T03:31:34.938Z,141.90
2018-01-26T03:34:01.626Z,143.87
2018-01-26T03:36:29.340Z,144.23
2018-01-26T03:38:57.104Z,153.50
2018-01-26T03:41:25.756Z,142.90
2018-01-26T03:43:54.452Z,147.37
2018-01-26T03:46:22.148Z,155.23
2018-01-26T03:48:49.786Z,152.40
2018-01-26T03:51:17.455Z,148.93
2018-01-26T03:53:44.224Z,146.87
2018-01-26T03:56:12.006Z,161.43
2018-01-26T03:58:39.728Z,145.27
2018-01-26T04:01:07.442Z,139.27
2018-01-26T04:03:35.167Z,147.43
2018-01-26T04:06:02.835Z,134.77
2018-01-26T04:08:31.556Z,151.97
2018-01-26T04:10:59.187Z,146.60
2018-01-26T04:13:25.926Z,180.03
2018-01-26T04:15:53.632Z,153.50
2018-01-26T04:18:20.372Z,284.80
2018-01-26T04:20:47.092Z,226.97
2018-01-26T04:23:13.892Z,214.20
2018-01-26T04:25:41.614Z,202.10
2018-01-26T04:28:09.264Z,216.03
2018-01-26T04:30:36.982Z,221.67
2018-01-26T04:33:03.682Z,253.37
2018-01-26T04:35:30.408Z,359.90
2018-01-26T04:37:58.132Z,345.83
2018-01-26T04:40:25.874Z,269.07
2018-01-26T04:42:52.594Z,240.17
2018-01-26T04:45:20.315Z,226.10
2018-01-26T04:47:47.064Z,196.47
2018-01-26T04:50:14.676Z,185.53
2018-01-26T04:52:41.462Z,175.67
2018-01-26T04:55:08.217Z,179.27
2018-01-26T04:57:34.915Z,181.57
2018-01-26T05:00:01.690Z,189.43
2018-01-26T05:02:29.428Z,197.47
2018-01-26T05:04:57.088Z,227.63
2018-01-26T05:07:24.811Z,218.10
2018-01-26T05:09:52.514Z,232.87
2018-01-26T05:12:21.226Z,223.97
2018-01-26T05:14:48.030Z,263.60
2018-01-26T05:17:15.726Z,266.63
2018-01-26T05:19:43.414Z,270.37
2018-01-26T05:22:10.178Z,256.67
2018-01-26T05:24:38.836Z,259.47
2018-01-26T05:27:05.591Z,243.00
2018-01-26T05:29:32.370Z,249.37
2018-01-26T05:32:00.193Z,246.87
2018-01-26T05:34:28.028Z,251.53
2018-01-26T05:36:55.800Z,239.30
2018-01-26T05:39:24.528Z,256.50
2018-01-26T05:41:51.293Z,272.23
2018-01-26T05:44:18.962Z,273.80
2018-01-26T05:46:47.632Z,256.60
2018-01-26T05:49:14.403Z,308.27
2018-01-26T05:51:42.180Z,327.70
2018-01-26T05:54:10.942Z,345.80
2018-01-26T05:56:37.667Z,353.87
2018-01-26T05:59:04.444Z,384.03
2018-01-26T06:01:32.182Z,409.00
2018-01-26T06:03:59.857Z,430.90
2018-01-26T06:06:27.671Z,428.23
2018-01-26T06:08:55.387Z,364.07
2018-01-26T06:11:23.056Z,344.63
2018-01-26T06:13:49.826Z,306.90
2018-01-26T06:16:18.484Z,325.50
2018-01-26T06:18:50.110Z,296.60
2018-01-26T06:21:17.818Z,323.97
2018-01-26T06:23:44.562Z,310.33
2018-01-26T06:26:11.347Z,344.93
2018-01-26T06:28:39.077Z,354.80
2018-01-26T06:31:05.825Z,354.90
2018-01-26T06:33:32.592Z,367.37
2018-01-26T06:45:40.358Z,327.80
2018-01-26T06:48:08.112Z,311.90
2018-01-26T06:50:34.930Z,334.97
2018-01-26T06:53:03.686Z,338.77
2018-01-26T06:55:30.422Z,346.13
2018-01-26T06:57:58.156Z,354.23
2018-01-26T07:00:24.934Z,368.93
2018-01-26T07:02:52.662Z,360.73
2018-01-26T07:05:20.348Z,353.93
2018-01-26T07:07:47.114Z,351.03
2018-01-26T07:10:13.824Z,355.57
2018-01-26T07:12:41.491Z,357.70
2018-01-26T07:15:09.190Z,355.30
2018-01-26T07:17:37.279Z,362.57
2018-01-26T07:20:04.996Z,356.30
2018-01-26T07:22:31.784Z,334.77
2018-01-26T07:24:59.522Z,317.57
2018-01-26T07:27:26.265Z,320.50
2018-01-26T07:29:53.049Z,333.47
2018-01-26T07:32:20.788Z,324.13
2018-01-26T07:34:47.518Z,313.50
2018-01-26T07:37:14.306Z,316.77
2018-01-26T07:39:42.028Z,307.37
2018-01-26T07:42:09.822Z,311.97
2018-01-26T07:44:36.572Z,307.77
2018-01-26T07:47:04.307Z,323.87
2018-01-26T07:49:31.099Z,330.70
2018-01-26T07:51:58.866Z,324.00
2018-01-26T07:54:26.599Z,334.97
2018-01-26T07:56:53.366Z,321.47
2018-01-26T07:59:21.040Z,337.10
2018-01-26T08:01:47.757Z,301.67
2018-01-26T08:04:14.556Z,298.83
2018-01-26T08:06:42.304Z,271.47
2018-01-26T08:09:10.051Z,270.60
2018-01-26T08:11:36.780Z,270.67
2018-01-26T08:14:04.308Z,260.90
2018-01-26T08:16:32.001Z,251.40
2018-01-26T08:18:58.690Z,249.07
2018-01-26T08:21:25.420Z,233.97
2018-01-26T08:23:53.154Z,240.40
2018-01-26T08:26:20.818Z,247.43
2018-01-26T08:28:47.597Z,240.13
2018-01-26T08:31:16.303Z,240.63
2018-01-26T08:33:44.755Z,236.43
2018-01-26T08:36:13.474Z,254.33
2018-01-26T08:38:41.208Z,245.87
2018-01-26T08:41:11.430Z,239.20
2018-01-26T08:43:38.207Z,242.57
2018-01-26T08:46:06.716Z,240.37
2018-01-26T08:48:38.592Z,224.80
2018-01-26T08:51:05.354Z,224.33
2018-01-26T08:53:33.032Z,214.57
2018-01-26T08:56:00.763Z,214.83
2018-01-26T08:58:29.494Z,227.60
2018-01-26T09:00:57.172Z,230.53
2018-01-26T09:03:24.010Z,239.57
2018-01-26T09:05:51.675Z,232.13
2018-01-26T09:08:21.213Z,224.17
2018-01-26T09:10:47.991Z,221.40
2018-01-26T09:13:14.683Z,211.33
2018-01-26T09:15:41.424Z,214.07
2018-01-26T09:18:08.174Z,201.70
2018-01-26T09:20:36.862Z,211.47
2018-01-26T09:23:04.595Z,205.67
2018-01-26T09:25:31.336Z,203.07
2018-01-26T09:27:59.030Z,184.40
2018-01-26T09:30:26.706Z,198.03
2018-01-26T09:32:54.467Z,197.30
2018-01-26T09:35:21.212Z,206.20
2018-01-26T09:37:47.963Z,205.77
2018-01-26T09:40:14.765Z,206.77
2018-01-26T09:42:42.471Z,195.53
2018-01-26T09:45:09.222Z,214.17
2018-01-26T09:47:37.937Z,218.67
2018-01-26T09:50:05.654Z,217.30
2018-01-26T09:52:32.403Z,217.70
2018-01-26T09:55:00.139Z,221.27
2018-01-26T09:57:27.840Z,210.33
2018-01-26T09:59:55.507Z,208.57
2018-01-26T10:02:22.297Z,219.50
2018-01-26T10:04:50.011Z,212.97
2018-01-26T10:07:16.706Z,211.33
2018-01-26T10:09:43.463Z,229.37
2018-01-26T10:12:10.153Z,214.90
2018-01-26T10:14:36.895Z,217.53
2018-01-26T10:17:04.515Z,235.73
2018-01-26T10:19:32.227Z,229.90
2018-01-26T10:21:59.883Z,219.67
2018-01-26T10:24:27.649Z,232.33
2018-01-26T10:26:56.211Z,225.50
2018-01-26T10:29:23.911Z,232.03
2018-01-26T10:31:52.667Z,228.23
2018-01-26T10:34:20.361Z,230.27
2018-01-26T10:36:48.032Z,225.50
2018-01-26T10:39:15.763Z,220.10
2018-01-26T10:41:43.474Z,229.97
2018-01-26T10:44:10.187Z,216.80
2018-01-26T10:46:37.943Z,207.67
2018-01-26T10:49:04.682Z,208.07
2018-01-26T10:51:32.755Z,193.77
2018-01-26T10:54:03.384Z,186.73
2018-01-26T10:56:31.099Z,199.07
2018-01-26T10:58:58.825Z,202.77
2018-01-26T11:01:29.017Z,196.77
2018-01-26T11:03:56.600Z,194.83
2018-01-26T11:06:24.323Z,198.30
2018-01-26T11:08:53.027Z,188.70
2018-01-26T11:11:23.975Z,170.90
2018-01-26T11:13:52.669Z,174.37
2018-01-26T11:16:19.408Z,172.20
2018-01-26T11:18:46.119Z,174.00
2018-01-26T11:21:13.801Z,166.13
2018-01-26T11:23:41.499Z,175.53
2018-01-26T11:26:09.244Z,166.17
2018-01-26T11:28:35.935Z,175.60
2018-01-26T11:31:02.669Z,176.57
2018-01-26T11:33:30.427Z,180.27
2018-01-26T11:35:58.165Z,183.73
2018-01-26T11:38:24.922Z,181.10
2018-01-26T11:40:52.564Z,177.23
2018-01-26T11:43:20.223Z,181.70
2018-01-26T11:45:47.950Z,182.13
2018-01-26T11:48:18.755Z,178.87
2018-01-26T11:50:46.407Z,176.37
2018-01-26T11:53:13.268Z,192.67
2018-01-26T11:55:39.987Z,185.00
2018-01-26T11:58:07.657Z,181.00
2018-01-26T12:00:35.397Z,181.60
2018-01-26T12:03:03.099Z,182.50
2018-01-26T12:05:29.786Z,178.03
2018-01-26T12:07:57.570Z,173.63
2018-01-26T12:10:25.318Z,173.73
2018-01-26T12:12:53.054Z,181.83
2018-01-26T12:15:20.041Z,173.33
2018-01-26T12:17:46.745Z,183.77
2018-01-26T12:20:13.435Z,173.67
2018-01-26T12:22:40.199Z,175.63
2018-01-26T12:25:06.917Z,172.60
2018-01-26T12:27:33.633Z,169.90
2018-01-26T12:39:41.402Z,119.47
2018-01-26T12:42:08.087Z,99.37
2018-01-26T12:44:35.132Z,97.67
2018-01-26T12:47:02.923Z,91.63
2018-01-26T12:49:30.637Z,89.07
2018-01-26T12:51:57.324Z,69.37
2018-01-26T12:54:24.029Z,70.87
2018-01-26T12:56:51.695Z,60.90
2018-01-26T12:59:19.355Z,67.30
2018-01-26T13:01:46.173Z,65.30
2018-01-26T13:04:13.874Z,66.87
2018-01-26T13:06:41.537Z,66.30
2018-01-26T13:09:09.232Z,66.30
2018-01-26T13:11:35.933Z,64.07
2018-01-26T13:14:03.675Z,63.20
2018-01-26T13:16:31.409Z,68.43
2018-01-26T13:18:59.162Z,68.40
2018-01-26T13:21:25.887Z,68.27
2018-01-26T13:23:52.613Z,65.93
2018-01-26T13:26:20.989Z,66.87
2018-01-26T13:28:48.667Z,72.80
2018-01-26T13:31:17.429Z,66.00
2018-01-26T13:33:46.145Z,61.87
2018-01-26T13:36:14.847Z,61.30
2018-01-26T13:38:41.583Z,64.00
2018-01-26T13:41:09.578Z,65.23
2018-01-26T13:43:37.239Z,66.03
2018-01-26T13:46:03.960Z,67.70
2018-01-26T13:48:31.895Z,65.23
2018-01-26T13:51:00.537Z,65.60
2018-01-26T13:53:27.321Z,70.93
2018-01-26T13:55:55.809Z,62.33
2018-01-26T13:58:26.655Z,59.97
2018-01-26T14:00:53.417Z,64.10
2018-01-26T14:03:21.120Z,62.70
2018-01-26T14:05:52.769Z,66.13
2018-01-26T14:08:20.495Z,67.73
2018-01-26T14:10:48.217Z,69.30
2018-01-26T14:13:14.891Z,76.07
2018-01-26T14:15:41.642Z,71.00
2018-01-26T14:18:10.293Z,70.07
2018-01-26T14:20:37.954Z,82.43
2018-01-26T14:23:05.655Z,79.33
2018-01-26T14:25:33.284Z,77.33
2018-01-26T14:28:00.955Z,83.23
2018-01-26T14:30:28.658Z,85.50
2018-01-26T14:32:57.423Z,86.50
2018-01-26T14:35:25.073Z,88.60
2018-01-26T14:37:52.779Z,84.60
2018-01-26T14:40:19.476Z,94.83
2018-01-26T14:42:47.176Z,107.37
2018-01-26T14:45:13.943Z,108.03
2018-01-26T14:47:41.672Z,122.30
2018-01-26T14:50:08.355Z,128.67
2018-01-26T14:52:37.145Z,125.90
2018-01-26T14:55:04.863Z,121.23
2018-01-26T14:57:32.537Z,115.83
2018-01-26T14:59:59.296Z,128.27
2018-01-26T15:02:26.947Z,129.23
2018-01-26T15:04:53.631Z,139.90
2018-01-26T15:07:20.414Z,128.77
2018-01-26T15:09:48.087Z,130.63
2018-01-26T15:12:15.773Z,129.70
2018-01-26T15:14:42.507Z,130.20
2018-01-26T15:17:10.183Z,134.60
2018-01-26T15:19:36.916Z,135.80
2018-01-26T15:22:04.650Z,143.83
2018-01-26T15:24:32.357Z,158.57
2018-01-26T15:26:59.095Z,149.87
2018-01-26T15:29:26.849Z,156.13
2018-01-26T15:31:54.539Z,167.03
2018-01-26T15:34:22.202Z,172.87
2018-01-26T15:36:49.891Z,168.77
2018-01-26T15:39:16.607Z,172.93
2018-01-26T15:41:44.291Z,171.33
2018-01-26T15:44:11.068Z,168.33
2018-01-26T15:56:18.839Z,185.63
2018-01-26T15:58:46.573Z,169.53
2018-01-26T16:01:14.283Z,168.53
2018-01-26T16:03:42.967Z,174.77
2018-01-26T16:06:10.699Z,174.77
2018-01-26T16:08:37.408Z,160.03
2018-01-26T16:11:05.212Z,175.00
2018-01-26T16:13:31.897Z,177.20
2018-01-26T16:16:04.585Z,169.83
2018-01-26T16:18:31.309Z,191.00
2018-01-26T16:21:03.793Z,213.33
2018-01-26T16:23:31.464Z,223.87
2018-01-26T16:25:59.245Z,220.00
2018-01-26T16:28:27.013Z,230.83
2018-01-26T16:30:55.688Z,234.30
2018-01-26T16:33:23.349Z,250.50
2018-01-26T16:35:50.062Z,242.50
2018-01-26T16:38:17.756Z,234.37
2018-01-26T16:40:55.095Z,244.73
2018-01-26T16:43:27.117Z,238.60
2018-01-26T16:45:53.821Z,242.43
2018-01-26T16:48:21.530Z,228.77
2018-01-26T16:50:49.313Z,237.13
2018-01-26T16:53:17.056Z,231.17
2018-01-26T16:55:43.827Z,214.37
2018-01-26T16:58:11.590Z,218.53
2018-01-26T17:00:40.204Z,231.90
2018-01-26T17:03:07.899Z,250.53
2018-01-26T17:05:35.642Z,250.17
2018-01-26T17:08:04.379Z,250.67
2018-01-26T17:10:31.103Z,266.33
2018-01-26T17:12:58.806Z,251.03
2018-01-26T17:15:26.552Z,274.40
2018-01-26T17:17:53.289Z,303.13
2018-01-26T17:20:21.087Z,316.53
2018-01-26T17:22:48.720Z,351.37
2018-01-26T17:25:15.497Z,372.73
2018-01-26T17:27:42.254Z,437.13
2018-01-26T17:30:09.987Z,457.33
2018-01-26T17:32:36.710Z,475.10
2018-01-26T17:35:04.426Z,443.37
2018-01-26T17:37:32.055Z,432.57
2018-01-26T17:40:00.767Z,385.83
2018-01-26T17:42:27.593Z,328.23
2018-01-26T17:44:55.274Z,303.23
2018-01-26T17:47:22.014Z,280.33
2018-01-26T17:49:48.747Z,246.80
2018-01-26T17:52:16.405Z,243.50
2018-01-26T17:54:43.100Z,239.43
2018-01-26T17:57:10.912Z,220.07
2018-01-26T17:59:39.644Z,191.67
2018-01-26T18:02:06.349Z,187.77
2018-01-26T18:04:34.095Z,186.87
2018-01-26T18:07:01.831Z,192.93
2018-01-26T18:09:28.537Z,179.70
2018-01-26T18:11:56.263Z,182.90
2018-01-26T18:14:22.965Z,182.50
2018-01-26T18:16:49.728Z,179.17
2018-01-26T18:19:17.505Z,179.00
2018-01-26T18:21:44.218Z,180.77
2018-01-26T18:24:10.958Z,158.97
2018-01-26T18:26:37.695Z,164.47
2018-01-26T18:29:05.361Z,158.63
2018-01-26T18:31:33.023Z,171.10
2018-01-26T18:34:00.784Z,172.43
2018-01-26T18:36:28.467Z,193.10
2018-01-26T18:38:56.128Z,203.57
2018-01-26T18:41:23.827Z,215.60
2018-01-26T18:43:50.555Z,225.70
2018-01-26T18:46:19.229Z,234.57
2018-01-26T18:48:46.950Z,250.20
2018-01-26T18:51:14.674Z,252.10
2018-01-26T18:53:41.401Z,263.60
2018-01-26T18:56:10.125Z,263.43
2018-01-26T18:58:36.944Z,249.97
2018-01-26T19:01:04.619Z,261.80
2018-01-26T19:03:31.366Z,270.30
2018-01-26T19:05:59.032Z,272.23
2018-01-26T19:08:25.811Z,266.77
2018-01-26T19:10:52.548Z,244.30
2018-01-26T19:13:19.262Z,220.20
2018-01-26T19:15:46.975Z,198.90
2018-01-26T19:18:15.141Z,178.73
2018-01-26T19:20:42.889Z,176.63
2018-01-26T19:23:09.605Z,169.20
2018-01-26T19:25:37.328Z,155.07
2018-01-26T19:28:05.065Z,156.57
2018-01-26T19:30:31.833Z,146.73
2018-01-26T19:32:58.593Z,151.57
2018-01-26T19:35:25.276Z,151.90
2018-01-26T19:37:52.980Z,147.90
2018-01-26T19:40:19.939Z,144.90
2018-01-26T19:42:47.663Z,153.23
2018-01-26T19:45:15.329Z,160.60
2018-01-26T19:47:43.045Z,154.00
2018-01-26T19:50:11.706Z,151.87
2018-01-26T19:52:40.402Z,158.60
2018-01-26T19:55:07.413Z,168.60
2018-01-26T19:57:35.070Z,174.63
2018-01-26T20:00:01.843Z,187.80
2018-01-26T20:02:29.535Z,171.90
2018-01-26T20:05:08.859Z,170.53
2018-01-26T20:07:42.466Z,179.17
2018-01-26T20:10:09.224Z,171.87
2018-01-26T20:12:54.690Z,166.93
2018-01-26T20:15:21.434Z,157.50
2018-01-26T20:17:48.738Z,147.40
2018-01-26T20:20:17.511Z,158.00
2018-01-26T20:22:44.226Z,152.93
2018-01-26T20:25:11.212Z,148.20
2018-01-26T20:27:38.295Z,163.77
2018-01-26T20:30:07.014Z,157.43
2018-01-26T20:32:33.777Z,162.87
2018-01-26T20:35:01.467Z,149.43
2018-01-26T20:37:29.273Z,147.57
2018-01-26T20:39:57.002Z,153.87
2018-01-26T20:42:24.752Z,150.97
2018-01-26T20:44:51.561Z,170.83
2018-01-26T20:47:19.240Z,159.03
2018-01-26T20:49:46.049Z,170.07
2018-01-26T20:52:14.755Z,152.07
2018-01-26T20:54:43.690Z,148.47
2018-01-26T20:57:11.526Z,150.37
2018-01-26T20:59:39.494Z,145.50
2018-01-26T21:02:08.362Z,156.20
2018-01-26T21:04:36.126Z,151.03
2018-01-26T21:07:03.055Z,137.73
2018-01-26T21:09:30.999Z,150.93
2018-01-26T21:11:58.814Z,151.77
2018-01-26T21:14:27.670Z,194.43
2018-01-26T21:16:54.414Z,213.63
2018-01-26T21:19:21.250Z,206.60
2018-01-26T21:21:48.909Z,190.67
2018-01-26T21:24:16.593Z,190.43
2018-01-26T21:26:43.382Z,191.03
2018-01-26T21:29:11.092Z,174.43
2018-01-26T21:31:38.795Z,172.53
2018-01-26T21:34:07.491Z,167.40
2018-01-26T21:36:35.206Z,154.70
2018-01-26T21:39:02.951Z,167.23
2018-01-26T21:41:30.694Z,151.07
2018-01-26T21:43:57.454Z,163.70
2018-01-26T21:46:25.148Z,144.43
2018-01-26T21:48:52.865Z,143.37
2018-01-26T21:51:20.586Z,165.87
2018-01-26T21:53:48.262Z,166.03
2018-01-26T21:56:15.993Z,160.60
2018-01-26T21:58:43.696Z,159.60
2018-01-26T22:01:11.396Z,152.03
2018-01-26T22:03:39.169Z,147.23
2018-01-26T22:06:23.517Z,161.87
2018-01-26T22:08:50.314Z,160.10
2018-01-26T22:11:18.000Z,164.33
2018-01-26T22:13:44.748Z,142.30
2018-01-26T22:16:11.470Z,141.60
2018-01-26T22:18:39.168Z,142.30
2018-01-26T22:21:05.902Z,137.67
2018-01-26T22:23:32.658Z,148.00
2018-01-26T22:25:59.385Z,131.87
2018-01-26T22:28:27.058Z,134.97
2018-01-26T22:30:53.826Z,141.00
2018-01-26T22:33:20.565Z,139.77
2018-01-26T22:35:48.204Z,131.10
2018-01-26T22:38:15.912Z,144.90
2018-01-26T22:40:44.536Z,138.30
2018-01-26T22:43:11.236Z,143.37
2018-01-26T22:45:39.828Z,152.20
2018-01-26T22:48:08.472Z,143.53
2018-01-26T22:50:37.174Z,149.73
2018-01-26T22:53:05.922Z,145.73
2018-01-26T22:55:33.616Z,138.73
2018-01-26T22:58:01.302Z,126.83
2018-01-26T23:00:29.508Z,126.10
2018-01-26T23:02:56.227Z,130.57
2018-01-26T23:05:22.967Z,112.20
2018-01-26T23:07:50.686Z,125.10
2018-01-26T23:10:17.372Z,118.90
2018-01-26T23:12:49.022Z,114.57
2018-01-26T23:15:17.748Z,109.37
2018-01-26T23:17:44.473Z,116.80
2018-01-26T23:20:12.130Z,122.43
2018-01-26T23:22:39.847Z,120.73
2018-01-26T23:25:07.566Z,121.80
2018-01-26T23:27:35.232Z,116.00
2018-01-26T23:30:03.798Z,118.73
2018-01-26T23:32:31.496Z,106.80
2018-01-26T23:34:59.154Z,126.03
2018-01-26T23:37:26.856Z,126.20
2018-01-26T23:39:54.384Z,120.17
2018-01-26T23:42:22.070Z,134.77
2018-01-26T23:44:48.836Z,126.70
2018-01-26T23:47:19.131Z,132.67
2018-01-26T23:49:45.921Z,122.07
2018-01-26T23:52:13.668Z,133.77
2018-01-26T23:54:41.298Z,135.30
2018-01-26T23:57:09.995Z,133.67
2018-01-26T23:59:37.746Z,133.80
